• location
  • image
mod_vvisit_countermod_vvisit_countermod_vvisit_countermod_vvisit_countermod_vvisit_countermod_vvisit_counter
mod_vvisit_counterToday111
mod_vvisit_counterYesterday517
mod_vvisit_counterThis week2266
mod_vvisit_counterLast week6203
mod_vvisit_counterThis month14962
mod_vvisit_counterLast month16929
mod_vvisit_counterAll days977888

We have: 4 guests, 1 bots online
Your IP: 54.80.83.123
 , 
Today: Sep 20, 2018
Airport

AP V2 EN

 

 

You can watch a film about services of Siauliai International Airport

Today

Thursday, 20 September 2018

Aviation Weather Forecast

[source: ADDS]
METAR
EYSA 200150Z 21008KT 1100 R14L/1600D BR OVC002 12/12 Q1017 AMB TEMPO 0700 FG RED =
TAF EYSA 200204Z 2003/2012 21008KT 1500 BR SCT003 TEMPO 2003/2006 0500 FG VV002 BECMG 2006/2007 9000 SCT035
TAF
TAF EYSA 200204Z 2003/2012 21008KT 1500 BR SCT003 TEMPO 2003/2006 0500 FG VV002 BECMG 2006/2007 9000 SCT035 =
SR / SS: 04:10 / 16:32 UTC (EYSA 2018-09-20)

Search

Who's Online

We have 5 guests online

tic logo en